createdAt,value
2019-03-19T00:04:35.145Z,73.37
2019-03-19T00:09:41.360Z,73.18
2019-03-19T00:14:46.563Z,73.45
2019-03-19T00:19:51.724Z,73.70
2019-03-19T00:24:58.688Z,73.94
2019-03-19T00:30:03.724Z,73.84
2019-03-19T00:35:08.994Z,74.02
2019-03-19T00:40:14.645Z,74.20
2019-03-19T00:45:19.643Z,73.96
2019-03-19T00:50:24.954Z,73.47
2019-03-19T00:55:39.965Z,73.77
2019-03-19T01:00:37.156Z,74.12
2019-03-19T01:05:42.229Z,74.31
2019-03-19T01:10:47.493Z,74.99
2019-03-19T01:15:52.535Z,74.92
2019-03-19T01:20:58.165Z,74.68
2019-03-19T01:26:03.285Z,74.54
2019-03-19T01:31:08.755Z,74.98
2019-03-19T01:36:13.976Z,75.64
2019-03-19T01:41:19.129Z,75.90
2019-03-19T01:46:24.831Z,76.14
2019-03-19T01:51:35.100Z,76.38
2019-03-19T01:56:40.307Z,76.47
2019-03-19T02:01:45.486Z,77.15
2019-03-19T02:06:50.573Z,77.50
2019-03-19T02:11:55.620Z,77.50
2019-03-19T02:17:00.787Z,77.22
2019-03-19T02:22:05.874Z,77.57
2019-03-19T02:27:11.220Z,77.59
2019-03-19T02:32:16.462Z,77.92
2019-03-19T02:37:21.468Z,77.89
2019-03-19T02:42:26.482Z,78.48
2019-03-19T02:47:31.706Z,78.73
2019-03-19T02:52:36.690Z,78.54
2019-03-19T02:57:41.694Z,78.89
2019-03-19T03:02:47.017Z,78.76
2019-03-19T03:07:52.478Z,78.63
2019-03-19T03:13:07.694Z,78.87
2019-03-19T03:18:12.714Z,79.30
2019-03-19T03:23:19.234Z,79.35
2019-03-19T03:28:24.242Z,79.67
2019-03-19T03:33:29.330Z,80.24
2019-03-19T03:38:34.486Z,80.66
2019-03-19T03:43:39.982Z,81.06
2019-03-19T03:48:44.954Z,81.20
2019-03-19T03:53:50.002Z,81.27
2019-03-19T03:59:00.821Z,81.14
2019-03-19T04:04:05.531Z,81.52
2019-03-19T04:09:09.618Z,81.52
2019-03-19T04:14:14.725Z,81.20
2019-03-19T04:19:19.791Z,81.22
2019-03-19T04:24:26.886Z,80.97
2019-03-19T04:29:32.383Z,80.92
2019-03-19T04:34:37.673Z,80.59
2019-03-19T04:39:42.809Z,80.42
2019-03-19T04:44:49.214Z,80.58
2019-03-19T04:49:55.595Z,80.42
2019-03-19T04:55:02.881Z,80.67
2019-03-19T05:00:13.561Z,80.50
2019-03-19T05:05:18.713Z,80.51
2019-03-19T05:10:23.710Z,80.72
2019-03-19T05:15:28.725Z,81.28
2019-03-19T05:20:33.957Z,81.41
2019-03-19T05:25:38.892Z,81.64
2019-03-19T05:30:44.364Z,81.39
2019-03-19T05:35:50.155Z,81.58
2019-03-19T05:40:55.748Z,81.70
2019-03-19T05:46:01.740Z,81.85
2019-03-19T05:51:06.847Z,82.33
2019-03-19T05:56:11.928Z,82.34
2019-03-19T06:01:17.072Z,83.26
2019-03-19T06:06:22.440Z,83.97
2019-03-19T06:11:27.598Z,83.64
2019-03-19T06:16:32.588Z,83.95
2019-03-19T06:21:38.011Z,83.06
2019-03-19T06:26:43.048Z,82.69
2019-03-19T06:31:48.101Z,82.07
2019-03-19T06:36:54.031Z,81.88
2019-03-19T06:42:01.796Z,82.08
2019-03-19T06:47:08.298Z,82.69
2019-03-19T06:52:18.853Z,83.68
2019-03-19T06:57:39.470Z,84.39
2019-03-19T07:02:45.213Z,84.70
2019-03-19T07:07:50.504Z,84.52
2019-03-19T07:12:55.724Z,84.34
2019-03-19T07:18:01.680Z,83.39
2019-03-19T07:23:12.035Z,83.22
2019-03-19T07:28:24.707Z,82.50
2019-03-19T07:33:37.966Z,82.04
2019-03-19T07:38:48.431Z,81.39
2019-03-19T07:43:53.856Z,80.86
2019-03-19T07:48:59.324Z,79.02
2019-03-19T07:54:10.537Z,78.22
2019-03-19T07:59:32.574Z,77.63
2019-03-19T08:04:41.327Z,78.60
2019-03-19T08:09:48.367Z,78.56
2019-03-19T08:14:56.578Z,78.22
2019-03-19T08:20:02.959Z,77.84
2019-03-19T08:25:10.052Z,77.46
2019-03-19T08:30:16.410Z,75.15
2019-03-19T08:35:21.730Z,73.62
2019-03-19T08:40:35.324Z,71.89
2019-03-19T08:45:40.668Z,71.55
2019-03-19T08:50:45.977Z,70.84
2019-03-19T08:55:51.627Z,70.25
2019-03-19T09:01:08.919Z,69.67
2019-03-19T09:06:14.400Z,70.08
2019-03-19T09:11:20.968Z,72.05
2019-03-19T09:16:27.015Z,74.81
2019-03-19T09:21:33.452Z,82.83
2019-03-19T09:26:42.723Z,85.87
2019-03-19T09:31:48.098Z,86.56
2019-03-19T09:36:57.642Z,87.96
2019-03-19T09:42:00.334Z,90.58
2019-03-19T09:47:07.257Z,90.36
2019-03-19T09:52:12.488Z,92.06
2019-03-19T09:57:30.200Z,92.69
2019-03-19T10:02:35.736Z,89.02
2019-03-19T10:07:41.848Z,83.78
2019-03-19T10:12:48.236Z,76.36
2019-03-19T10:17:54.592Z,72.12
2019-03-19T10:23:02.181Z,70.34
2019-03-19T10:28:08.262Z,65.54
2019-03-19T10:33:15.874Z,55.64
2019-03-19T10:38:24.120Z,47.81
2019-03-19T10:43:29.373Z,41.82
2019-03-19T10:48:34.708Z,38.36
2019-03-19T10:53:46.743Z,37.17
2019-03-19T10:58:56.694Z,35.08
2019-03-19T11:04:07.948Z,33.13
2019-03-19T11:09:13.134Z,29.85
2019-03-19T11:14:22.490Z,34.25
2019-03-19T11:19:27.810Z,34.69
2019-03-19T11:24:35.257Z,42.05
2019-03-19T11:29:40.886Z,50.84
2019-03-19T11:34:46.215Z,57.51
2019-03-19T11:39:51.810Z,60.16
2019-03-19T11:45:01.610Z,61.88
2019-03-19T11:50:14.270Z,62.48
2019-03-19T11:55:21.861Z,68.59
2019-03-19T12:00:37.626Z,73.43
2019-03-19T12:05:43.380Z,77.92
2019-03-19T12:10:56.020Z,79.32
2019-03-19T12:16:02.132Z,78.92
2019-03-19T12:21:28.845Z,78.53
2019-03-19T12:26:33.928Z,74.59
2019-03-19T12:31:39.219Z,68.10
2019-03-19T12:36:44.655Z,69.24
2019-03-19T12:41:50.070Z,69.95
2019-03-19T12:46:56.602Z,66.81
2019-03-19T12:52:02.227Z,60.60
2019-03-19T12:57:13.505Z,58.04
2019-03-19T13:02:23.208Z,58.21
2019-03-19T13:07:28.676Z,61.65
2019-03-19T13:12:35.151Z,65.41
2019-03-19T13:17:40.731Z,69.58
2019-03-19T13:22:49.858Z,70.81
2019-03-19T13:27:55.028Z,70.92
2019-03-19T13:33:01.846Z,71.00
2019-03-19T13:38:09.443Z,69.59
2019-03-19T13:43:14.931Z,62.60
2019-03-19T13:48:20.568Z,56.93
2019-03-19T13:53:25.771Z,59.93
2019-03-19T13:58:30.854Z,62.25
2019-03-19T14:03:36.443Z,57.36
2019-03-19T14:08:41.572Z,52.23
2019-03-19T14:13:46.870Z,47.62
2019-03-19T14:18:52.880Z,46.49
2019-03-19T14:24:01.896Z,48.53
2019-03-19T14:29:07.350Z,49.36
2019-03-19T14:34:12.578Z,52.26
2019-03-19T14:39:19.617Z,55.58
2019-03-19T14:44:24.704Z,58.32
2019-03-19T14:49:31.577Z,60.00
2019-03-19T14:54:37.576Z,58.81
2019-03-19T14:59:42.717Z,60.05
2019-03-19T15:04:49.844Z,60.20
2019-03-19T15:09:54.849Z,62.19
2019-03-19T15:15:03.103Z,64.80
2019-03-19T15:20:18.064Z,66.40
2019-03-19T15:25:24.318Z,67.13
2019-03-19T15:30:33.140Z,67.46
2019-03-19T15:35:41.876Z,65.07
2019-03-19T15:40:52.232Z,65.20
2019-03-19T15:45:58.768Z,62.93
2019-03-19T15:51:06.448Z,62.41
2019-03-19T15:56:11.940Z,62.65
2019-03-19T16:01:40.152Z,62.57
2019-03-19T16:06:37.198Z,62.92
2019-03-19T16:11:44.386Z,62.61
2019-03-19T16:16:49.468Z,63.08
2019-03-19T16:21:54.830Z,62.65
2019-03-19T16:27:01.731Z,62.78
2019-03-19T16:32:07.341Z,62.72
2019-03-19T16:37:12.594Z,62.07
2019-03-19T16:42:22.669Z,62.53
2019-03-19T16:47:28.148Z,62.17
2019-03-19T16:52:33.202Z,62.13
2019-03-19T16:57:41.013Z,62.06
2019-03-19T17:02:49.140Z,61.96
2019-03-19T17:07:54.747Z,61.66
2019-03-19T17:13:00.348Z,61.74
2019-03-19T17:18:06.343Z,62.60
2019-03-19T17:23:11.500Z,63.48
2019-03-19T17:28:22.361Z,63.67
2019-03-19T17:33:23.408Z,63.35
2019-03-19T17:38:29.372Z,63.18
2019-03-19T17:43:34.376Z,63.36
2019-03-19T17:48:39.630Z,62.57
2019-03-19T17:53:44.784Z,62.14
2019-03-19T17:58:50.015Z,62.68
2019-03-19T18:03:55.995Z,62.09
2019-03-19T18:09:02.809Z,62.34
2019-03-19T18:14:08.376Z,61.64
2019-03-19T18:19:13.427Z,61.21
2019-03-19T18:24:22.932Z,61.07
2019-03-19T18:29:28.092Z,61.40
2019-03-19T18:34:33.150Z,61.17
2019-03-19T18:39:38.300Z,61.17
2019-03-19T18:44:43.294Z,61.70
2019-03-19T18:49:50.959Z,61.78
2019-03-19T18:54:56.104Z,61.97
2019-03-19T19:00:01.418Z,61.79
2019-03-19T19:05:07.626Z,62.34
2019-03-19T19:10:15.515Z,61.83
2019-03-19T19:15:21.065Z,62.23
2019-03-19T19:20:26.640Z,63.00
2019-03-19T19:25:31.700Z,63.24
2019-03-19T19:30:38.125Z,63.65
2019-03-19T19:35:43.206Z,64.00
2019-03-19T19:40:49.374Z,64.37
2019-03-19T19:45:55.574Z,64.87
2019-03-19T19:51:02.976Z,64.97
2019-03-19T19:56:08.394Z,65.30
2019-03-19T20:01:14.775Z,65.46
2019-03-19T20:06:20.176Z,65.70
2019-03-19T20:11:25.180Z,65.54
2019-03-19T20:16:31.358Z,65.83
2019-03-19T20:21:43.607Z,65.79
2019-03-19T20:26:51.233Z,65.91
2019-03-19T20:31:57.258Z,66.13
2019-03-19T20:37:08.198Z,65.93
2019-03-19T20:42:16.795Z,66.03
2019-03-19T20:47:22.299Z,65.67
2019-03-19T20:52:28.779Z,65.50
2019-03-19T20:57:33.848Z,65.37
2019-03-19T21:02:39.611Z,64.97
2019-03-19T21:07:45.080Z,65.30
2019-03-19T21:12:50.634Z,65.31
2019-03-19T21:17:55.911Z,65.26
2019-03-19T21:23:01.140Z,65.00
2019-03-19T21:28:14.065Z,65.46
2019-03-19T21:33:16.664Z,65.72
2019-03-19T21:38:22.395Z,65.96
2019-03-19T21:43:27.608Z,65.83
2019-03-19T21:48:42.905Z,66.05
2019-03-19T21:53:48.100Z,66.33
2019-03-19T21:58:53.718Z,67.23
2019-03-19T22:04:03.206Z,68.01
2019-03-19T22:09:11.239Z,67.62
2019-03-19T22:14:19.160Z,67.81
2019-03-19T22:19:26.745Z,68.43
2019-03-19T22:24:32.493Z,68.83
2019-03-19T22:29:37.845Z,69.27
2019-03-19T22:34:47.114Z,69.32
2019-03-19T22:39:53.126Z,69.98
2019-03-19T22:44:59.671Z,69.97
2019-03-19T22:50:05.822Z,70.33
2019-03-19T22:55:11.137Z,70.45
2019-03-19T23:00:39.623Z,70.66
2019-03-19T23:05:46.501Z,70.79
2019-03-19T23:10:52.786Z,71.40
2019-03-19T23:15:58.580Z,71.45
2019-03-19T23:21:03.995Z,71.27
2019-03-19T23:26:09.322Z,70.93
2019-03-19T23:31:14.804Z,71.73
2019-03-19T23:36:20.565Z,72.08
2019-03-19T23:41:25.781Z,72.44
2019-03-19T23:46:31.068Z,73.10
2019-03-19T23:51:36.244Z,73.17
2019-03-19T23:56:41.398Z,73.07
